Portada
METAR-TAF:

METAR-TAF

Aeroports :

Valledupar, Colòmbia

latitud: 10-26N, longitud: 073-15W, altitud: 138 m

Observació

L'informe es va fer fa 41 minuts, a les 19:00 UTC
Vent 8 kt del Sud
Temperatura 33°C
Humitat 46%
Pressió 1009 hPa
Visibilitat 10 km o més
Escasses núvols a una alçada de 2000 ft
Núvols disperses a una alçada de 10000 ft

METAR: SKVP 181900Z 18008KT 9999 FEW020 SCT100 33/20 A2979

Hora: 14:41 (19:41 UTC)


TAF: manca

Observacions i pronòstics meteorològics de més de 4000 aeroports (METAR i TAF).

Les estacions disponibles són els punts grocs i vermells al mapa.

Posi el ratolí al punt desitjat per veure el nom de l'estació.

Feu clic per veure les observacions i els pronòstics meteorològics.

Per canviar el mapa: feu clic els botons verds amb una creu de color negre per apropar; al botó verd amb un guió per allunyar la imatge; o en les fletxes verdes per a mapes adjacents.


METAR-TAF: